Terminal Aerodrome Forecast
Issued by NWS North Platte, NE

Home | Current Version | Previous Version | Text Only | Print | Product List | Glossary On
Versions: 1 2 3 4 5 6 7 8 9 10 11 12 13 14 15
000
FTUS43 KLBF 200500
TAFVTN
TAF
KVTN 200534Z 2006/2106 09005KT P6SM SCT150
     FM201500 14010KT P6SM SCT200
     FM201900 19011KT P6SM SCT100
     FM210400 34012KT P6SM SCT070 BKN150=

USA.gov is the U.S. government's official web portal to all federal, state and local government web resources and services.